createdAt,value
2022-08-05T00:00:19.192Z,9.278315
2022-08-05T00:01:22.845Z,9.278380
2022-08-05T00:02:19.247Z,9.278242
2022-08-05T00:03:18.188Z,9.278291
2022-08-05T00:04:18.126Z,9.278243
2022-08-05T00:06:02.723Z,9.278289
2022-08-05T00:06:29.384Z,9.278393
2022-08-05T00:07:26.935Z,9.278441
2022-08-05T00:08:32.498Z,9.278455
2022-08-05T00:09:19.544Z,9.278367
2022-08-05T00:10:18.070Z,9.278380
2022-08-05T00:11:20.687Z,9.278376
2022-08-05T00:12:19.090Z,9.278419
2022-08-05T00:13:18.659Z,9.278374
2022-08-05T00:14:17.977Z,9.278342
2022-08-05T00:15:56.074Z,9.278530
2022-08-05T00:16:19.003Z,9.278390
2022-08-05T00:17:20.217Z,9.278363
2022-08-05T00:18:21.823Z,9.278300
2022-08-05T00:19:17.882Z,9.278303
2022-08-05T00:20:20.304Z,9.278241
2022-08-05T00:21:17.880Z,9.278262
2022-08-05T00:22:17.972Z,9.278326
2022-08-05T00:23:17.832Z,9.278354
2022-08-05T00:24:24.248Z,9.278255
2022-08-05T00:25:18.804Z,9.278173
2022-08-05T00:26:17.805Z,9.278180
2022-08-05T00:27:17.764Z,9.278271
2022-08-05T00:28:21.094Z,9.278234
2022-08-05T00:29:18.725Z,9.278249
2022-08-05T00:30:17.718Z,9.278253
2022-08-05T00:31:54.183Z,9.278311
2022-08-05T00:32:18.704Z,9.278294
2022-08-05T00:34:55.990Z,9.278371
2022-08-05T00:34:56.057Z,9.278321
2022-08-05T00:35:20.226Z,9.278283
2022-08-05T00:37:11.022Z,9.278319
2022-08-05T00:37:18.803Z,9.278297
2022-08-05T00:38:17.579Z,9.278253
2022-08-05T00:39:18.609Z,9.278342
2022-08-05T00:40:17.624Z,9.278321
2022-08-05T00:41:18.552Z,9.278246
2022-08-05T00:42:31.515Z,9.278267
2022-08-05T00:43:18.482Z,9.278403
2022-08-05T00:44:17.468Z,9.278411
2022-08-05T00:45:17.477Z,9.278384
2022-08-05T00:46:18.444Z,9.278414
2022-08-05T00:47:18.453Z,9.278329
2022-08-05T00:48:17.406Z,9.278326
2022-08-05T00:49:17.427Z,9.278437
2022-08-05T00:50:17.387Z,9.278410
2022-08-05T00:51:51.954Z,9.278499
2022-08-05T00:52:18.377Z,9.278412
2022-08-05T00:54:00.302Z,9.278370
2022-08-05T00:54:18.439Z,9.278339
2022-08-05T00:55:17.326Z,9.278305
2022-08-05T00:56:17.486Z,9.278315
2022-08-05T00:57:21.276Z,9.278455
2022-08-05T00:58:17.258Z,9.278411
2022-08-05T00:59:17.312Z,9.278325
2022-08-05T01:00:17.259Z,9.278331
2022-08-05T01:01:41.973Z,9.278367
2022-08-05T01:02:18.238Z,9.278356
2022-08-05T01:03:22.567Z,9.278319
2022-08-05T01:04:20.233Z,9.278316
2022-08-05T01:05:18.167Z,9.278323
2022-08-05T01:06:17.111Z,9.278298
2022-08-05T01:07:17.995Z,9.278336
2022-08-05T01:08:30.624Z,9.278378
2022-08-05T01:09:20.138Z,9.278369
2022-08-05T01:10:17.084Z,9.278404
2022-08-05T01:11:21.821Z,9.278529
2022-08-05T01:12:19.105Z,9.278592
2022-08-05T01:13:22.249Z,9.278387
2022-08-05T01:14:18.015Z,9.278483
2022-08-05T01:15:35.092Z,9.278318
2022-08-05T01:16:20.934Z,9.278541
2022-08-05T01:17:17.981Z,9.278367
2022-08-05T01:18:16.942Z,9.278288
2022-08-05T01:19:16.921Z,9.278237
2022-08-05T01:20:16.902Z,9.278245
2022-08-05T01:21:22.929Z,9.278174
2022-08-05T01:22:18.872Z,9.278221
2022-08-05T01:23:23.429Z,9.278245
2022-08-05T01:24:17.836Z,9.278270
2022-08-05T01:25:16.826Z,9.278281
2022-08-05T01:26:16.859Z,9.278266
2022-08-05T01:27:19.289Z,9.278257
2022-08-05T01:28:16.791Z,9.278294
2022-08-05T01:29:16.761Z,9.278334
2022-08-05T01:30:18.988Z,9.278311
2022-08-05T01:31:17.773Z,9.278334
2022-08-05T01:32:18.711Z,9.278301
2022-08-05T01:33:19.740Z,9.278189
2022-08-05T01:34:17.761Z,9.278247
2022-08-05T01:35:51.030Z,9.278271
2022-08-05T01:36:17.682Z,9.278235
2022-08-05T01:37:24.483Z,9.278314
2022-08-05T01:38:27.435Z,9.278275
2022-08-05T01:39:45.664Z,9.278360
2022-08-05T01:40:18.030Z,9.278363
2022-08-05T01:41:16.597Z,9.278309
2022-08-05T01:42:16.540Z,9.278275
2022-08-05T01:43:22.325Z,9.278304
2022-08-05T01:44:17.532Z,9.278365
2022-08-05T01:45:16.620Z,9.278319
2022-08-05T01:46:42.488Z,9.278303
2022-08-05T01:47:17.474Z,9.278271
2022-08-05T01:48:16.454Z,9.278366
2022-08-05T01:49:24.202Z,9.278462
2022-08-05T01:50:17.458Z,9.278384
2022-08-05T01:51:16.451Z,9.278279
2022-08-05T01:52:17.694Z,9.278352
2022-08-05T01:53:16.446Z,9.278246
2022-08-05T01:54:18.055Z,9.278263
2022-08-05T01:55:16.343Z,9.278317
2022-08-05T01:58:10.383Z,9.278371
2022-08-05T01:58:11.158Z,9.278302
2022-08-05T01:58:17.309Z,9.278279
2022-08-05T01:59:16.269Z,9.278228
2022-08-05T02:00:16.279Z,9.278237
2022-08-05T02:01:16.304Z,9.278236
2022-08-05T02:02:17.284Z,9.278250
2022-08-05T02:03:16.378Z,9.278251
2022-08-05T02:04:17.189Z,9.278247
2022-08-05T02:05:16.235Z,9.278205
2022-08-05T02:06:37.082Z,9.278180
2022-08-05T02:07:21.883Z,9.278316
2022-08-05T02:08:31.240Z,9.278382
2022-08-05T02:09:17.114Z,9.278370
2022-08-05T02:10:17.313Z,9.278214
2022-08-05T02:11:16.057Z,9.278273
2022-08-05T02:12:17.090Z,9.278243
2022-08-05T02:13:16.809Z,9.278260
2022-08-05T02:14:17.034Z,9.278291
2022-08-05T02:15:19.567Z,9.278293
2022-08-05T02:16:16.335Z,9.278229
2022-08-05T02:17:17.020Z,9.278258
2022-08-05T02:18:32.054Z,9.278178
2022-08-05T02:19:16.944Z,9.278246
2022-08-05T02:20:15.922Z,9.278208
2022-08-05T02:21:15.941Z,9.278210
2022-08-05T02:22:25.633Z,9.278233
2022-08-05T02:23:16.885Z,9.278163
2022-08-05T02:24:17.898Z,9.278160
2022-08-05T02:25:15.862Z,9.278303
2022-08-05T02:26:17.078Z,9.278447
2022-08-05T02:27:15.845Z,9.278452
2022-08-05T02:28:15.789Z,9.278379
2022-08-05T02:29:21.694Z,9.278432
2022-08-05T02:30:16.751Z,9.278282
2022-08-05T02:31:15.742Z,9.278271
2022-08-05T02:32:23.667Z,9.278146
2022-08-05T02:33:16.716Z,9.278208
2022-08-05T02:34:16.742Z,9.278599
2022-08-05T02:35:18.954Z,9.278402
2022-08-05T02:36:16.664Z,9.278318
2022-08-05T02:37:15.801Z,9.278248
2022-08-05T02:38:19.518Z,9.278210
2022-08-05T02:39:15.638Z,9.278214
2022-08-05T02:40:16.629Z,9.278198
2022-08-05T02:41:17.878Z,9.278253
2022-08-05T02:42:25.694Z,9.278535
2022-08-05T02:43:16.547Z,9.278370
2022-08-05T02:44:15.574Z,9.278236
2022-08-05T02:45:15.543Z,9.278306
2022-08-05T02:46:16.330Z,9.278245
2022-08-05T02:47:15.594Z,9.278190
2022-08-05T02:48:15.460Z,9.278340
2022-08-05T02:49:15.488Z,9.278242
2022-08-05T02:50:15.438Z,9.278306
2022-08-05T02:51:15.475Z,9.278319
2022-08-05T02:52:30.262Z,9.278229
2022-08-05T02:53:19.362Z,9.278307
2022-08-05T02:54:36.039Z,9.278197
2022-08-05T02:55:17.549Z,9.278209
2022-08-05T02:56:18.900Z,9.278368
2022-08-05T02:58:09.162Z,9.278255
2022-08-05T02:58:16.290Z,9.278235
2022-08-05T02:59:15.271Z,9.278337
2022-08-05T03:00:15.270Z,9.278316
2022-08-05T03:01:15.332Z,9.278385
2022-08-05T03:02:15.240Z,9.278286
2022-08-05T03:03:15.196Z,9.278313
2022-08-05T03:04:16.184Z,9.278216
2022-08-05T03:05:15.208Z,9.278070
2022-08-05T03:06:56.561Z,9.278240
2022-08-05T03:07:40.627Z,9.278306
2022-08-05T03:08:16.538Z,9.278215
2022-08-05T03:09:15.937Z,9.278341
2022-08-05T03:10:16.087Z,9.278332
2022-08-05T03:11:53.837Z,9.278413
2022-08-05T03:12:16.075Z,9.278278
2022-08-05T03:13:16.732Z,9.278354
2022-08-05T03:14:15.027Z,9.278284
2022-08-05T03:15:15.032Z,9.278244
2022-08-05T03:16:15.810Z,9.278303
2022-08-05T03:17:14.993Z,9.278390
2022-08-05T03:18:14.944Z,9.278270
2022-08-05T03:19:20.262Z,9.278372
2022-08-05T03:20:15.920Z,9.278489
2022-08-05T03:21:15.887Z,9.278637
2022-08-05T03:22:16.705Z,9.278703
2022-08-05T03:23:14.860Z,9.278696
2022-08-05T03:24:14.834Z,9.278641
2022-08-05T03:26:04.027Z,9.278479
2022-08-05T03:26:32.061Z,9.278566
2022-08-05T03:27:16.029Z,9.278357
2022-08-05T03:28:14.759Z,9.278393
2022-08-05T03:29:17.422Z,9.278499
2022-08-05T03:30:14.737Z,9.278865
2022-08-05T03:31:25.883Z,9.278617
2022-08-05T03:32:15.735Z,9.278741
2022-08-05T03:33:14.689Z,9.278717
2022-08-05T03:34:14.665Z,9.278482
2022-08-05T03:35:14.689Z,9.278336
2022-08-05T03:36:14.651Z,9.278378
2022-08-05T03:37:14.654Z,9.278308
2022-08-05T03:38:14.716Z,9.278067
2022-08-05T03:39:26.565Z,9.278204
2022-08-05T03:40:31.212Z,9.278338
2022-08-05T03:41:15.556Z,9.278355
2022-08-05T03:42:14.555Z,9.278353
2022-08-05T03:43:58.376Z,9.278302
2022-08-05T03:44:19.942Z,9.278322
2022-08-05T03:45:21.957Z,9.278379
2022-08-05T03:46:15.476Z,9.278351
2022-08-05T03:47:14.511Z,9.278367
2022-08-05T03:48:14.436Z,9.278397
2022-08-05T03:49:15.432Z,9.278281
2022-08-05T03:50:14.406Z,9.278245
2022-08-05T03:52:38.008Z,9.278295
2022-08-05T03:52:39.423Z,9.278357
2022-08-05T03:55:00.134Z,9.278302
2022-08-05T03:55:50.745Z,9.278293
2022-08-05T03:56:01.855Z,9.278259
2022-08-05T03:56:18.009Z,9.278234
2022-08-05T03:57:16.515Z,9.278257
2022-08-05T03:58:14.296Z,9.278290
2022-08-05T03:59:14.253Z,9.278296
2022-08-05T04:00:15.566Z,9.278284
2022-08-05T04:01:14.301Z,9.278273
2022-08-05T04:02:14.989Z,9.278200
2022-08-05T04:03:28.183Z,9.278308
2022-08-05T04:04:15.184Z,9.278326
2022-08-05T04:05:15.186Z,9.278315
2022-08-05T04:06:14.142Z,9.278265
2022-08-05T04:07:14.120Z,9.278260
2022-08-05T04:08:14.931Z,9.278309
2022-08-05T04:09:20.101Z,9.278290
2022-08-05T04:10:15.069Z,9.278341
2022-08-05T04:11:14.050Z,9.278352
2022-08-05T04:12:23.523Z,9.278421
2022-08-05T04:13:15.046Z,9.278292
2022-08-05T04:14:18.057Z,9.278236
2022-08-05T04:15:15.486Z,9.278236
2022-08-05T04:16:14.367Z,9.278383
2022-08-05T04:17:13.986Z,9.278410
2022-08-05T04:18:20.598Z,9.278495
2022-08-05T04:19:15.910Z,9.278435
2022-08-05T04:20:14.164Z,9.278277
2022-08-05T04:21:13.886Z,9.278284
2022-08-05T04:22:14.963Z,9.278222
2022-08-05T04:23:16.220Z,9.278278
2022-08-05T04:24:18.819Z,9.278251
2022-08-05T04:25:14.807Z,9.278181
2022-08-05T04:26:13.872Z,9.278262
2022-08-05T04:27:13.801Z,9.278275
2022-08-05T04:28:13.836Z,9.278311
2022-08-05T04:29:14.376Z,9.278324
2022-08-05T04:30:13.729Z,9.278255
2022-08-05T04:31:13.725Z,9.278265
2022-08-05T04:32:13.818Z,9.278255
2022-08-05T04:33:14.712Z,9.278260
2022-08-05T04:34:31.144Z,9.278317
2022-08-05T04:35:19.684Z,9.278362
2022-08-05T04:36:45.871Z,9.278313
2022-08-05T04:37:14.681Z,9.278276
2022-08-05T04:38:15.461Z,9.278333
2022-08-05T04:39:13.675Z,9.278369
2022-08-05T04:40:13.557Z,9.278336
2022-08-05T04:41:14.556Z,9.278341
2022-08-05T04:42:13.545Z,9.278319
2022-08-05T04:43:16.460Z,9.278318
2022-08-05T04:44:13.521Z,9.278326
2022-08-05T04:45:14.121Z,9.278364
2022-08-05T04:46:14.466Z,9.278351
2022-08-05T04:47:20.023Z,9.278248
2022-08-05T04:48:16.425Z,9.278316
2022-08-05T04:49:14.923Z,9.278143
2022-08-05T04:50:13.387Z,9.278290
2022-08-05T04:51:14.454Z,9.278507
2022-08-05T04:52:13.441Z,9.278406
2022-08-05T04:53:13.422Z,9.278328
2022-08-05T04:54:13.353Z,9.278230
2022-08-05T04:55:14.497Z,9.278359
2022-08-05T04:56:33.657Z,9.278257
2022-08-05T04:57:14.330Z,9.278242
2022-08-05T04:58:13.269Z,9.278172
2022-08-05T04:59:26.636Z,9.278259
2022-08-05T05:00:14.224Z,9.278214
2022-08-05T05:01:13.279Z,9.278251
2022-08-05T05:02:41.518Z,9.278291
2022-08-05T05:03:14.227Z,9.278317
2022-08-05T05:04:14.158Z,9.278175
2022-08-05T05:05:16.896Z,9.278131
2022-08-05T05:06:40.090Z,9.278054
2022-08-05T05:07:15.884Z,9.278182
2022-08-05T05:08:14.429Z,9.278315
2022-08-05T05:09:17.730Z,9.278399
2022-08-05T05:10:13.083Z,9.278225
2022-08-05T05:11:15.248Z,9.278111
2022-08-05T05:12:13.113Z,9.278217
2022-08-05T05:13:13.023Z,9.278209
2022-08-05T05:14:15.968Z,9.278335
2022-08-05T05:15:12.960Z,9.278443
2022-08-05T05:16:13.049Z,9.278352
2022-08-05T05:17:12.985Z,9.278386
2022-08-05T05:18:12.911Z,9.278415
2022-08-05T05:19:23.673Z,9.278276
2022-08-05T05:20:14.867Z,9.278345
2022-08-05T05:21:12.848Z,9.278225
2022-08-05T05:22:22.683Z,9.278236
2022-08-05T05:23:19.714Z,9.278370
2022-08-05T05:24:13.815Z,9.278275
2022-08-05T05:25:16.935Z,9.278530
2022-08-05T05:26:12.773Z,9.278486
2022-08-05T05:27:12.782Z,9.278149
2022-08-05T05:28:12.738Z,9.278396
2022-08-05T05:29:14.919Z,9.278238
2022-08-05T05:30:15.718Z,9.278247
2022-08-05T05:31:13.722Z,9.278324
2022-08-05T05:32:12.822Z,9.278285
2022-08-05T05:33:17.225Z,9.278286
2022-08-05T05:34:12.683Z,9.278436
2022-08-05T05:35:12.660Z,9.278370
2022-08-05T05:36:13.613Z,9.278324
2022-08-05T05:37:12.622Z,9.278303
2022-08-05T05:38:13.390Z,9.278361
2022-08-05T05:39:12.578Z,9.278420
2022-08-05T05:40:12.545Z,9.278136
2022-08-05T05:41:12.552Z,9.278113
2022-08-05T05:42:12.520Z,9.278123
2022-08-05T05:43:12.524Z,9.278270
2022-08-05T05:44:46.015Z,9.278348
2022-08-05T05:45:14.235Z,9.278254
2022-08-05T05:46:17.552Z,9.278370
2022-08-05T05:47:22.204Z,9.278267
2022-08-05T05:48:16.027Z,9.278266
2022-08-05T05:49:13.529Z,9.278163
2022-08-05T05:50:16.265Z,9.278234
2022-08-05T05:51:15.517Z,9.278264
2022-08-05T05:52:13.369Z,9.278305
2022-08-05T05:53:22.628Z,9.278278
2022-08-05T05:54:13.348Z,9.278338
2022-08-05T05:55:13.306Z,9.278407
2022-08-05T05:56:12.329Z,9.278346
2022-08-05T05:57:13.896Z,9.278154
2022-08-05T05:58:13.327Z,9.278280
2022-08-05T05:59:12.240Z,9.278354
2022-08-05T06:00:12.241Z,9.278395
2022-08-05T06:01:15.219Z,9.278324
2022-08-05T06:02:12.184Z,9.278327
2022-08-05T06:03:39.855Z,9.278369
2022-08-05T06:04:14.365Z,9.278276
2022-08-05T06:05:16.758Z,9.278274
2022-08-05T06:06:13.129Z,9.278271
2022-08-05T06:07:12.155Z,9.278235
2022-08-05T06:08:12.146Z,9.278174
2022-08-05T06:09:17.346Z,9.278232
2022-08-05T06:10:13.093Z,9.278307
2022-08-05T06:11:12.053Z,9.278416
2022-08-05T06:12:12.228Z,9.278534
2022-08-05T06:13:12.055Z,9.278458
2022-08-05T06:14:11.999Z,9.278444
2022-08-05T06:15:16.556Z,9.278356
2022-08-05T06:16:29.970Z,9.278267
2022-08-05T06:17:52.351Z,9.278288
2022-08-05T06:18:12.949Z,9.278287
2022-08-05T06:19:12.557Z,9.278417
2022-08-05T06:20:18.818Z,9.278392
2022-08-05T06:21:16.659Z,9.278211
2022-08-05T06:22:12.896Z,9.278255
2022-08-05T06:23:12.865Z,9.278134
2022-08-05T06:24:12.783Z,9.278394
2022-08-05T06:25:59.785Z,9.278360
2022-08-05T06:26:20.817Z,9.278281
2022-08-05T06:28:09.497Z,9.278174
2022-08-05T06:28:21.080Z,9.278344
2022-08-05T06:29:26.475Z,9.278369
2022-08-05T06:30:17.907Z,9.278296
2022-08-05T06:31:17.916Z,9.278330
2022-08-05T06:32:24.902Z,9.278355
2022-08-05T06:33:12.691Z,9.278345
2022-08-05T06:34:12.697Z,9.278365
2022-08-05T06:35:15.499Z,9.278335
2022-08-05T06:36:12.638Z,9.278373
2022-08-05T06:37:12.348Z,9.278425
2022-08-05T06:38:12.035Z,9.278304
2022-08-05T06:39:11.637Z,9.278357
2022-08-05T06:40:11.759Z,9.278366
2022-08-05T06:41:11.714Z,9.278359
2022-08-05T06:42:11.617Z,9.278345
2022-08-05T06:43:51.458Z,9.278339
2022-08-05T06:44:12.518Z,9.278286
2022-08-05T06:45:21.336Z,9.278156
2022-08-05T06:46:12.478Z,9.278244
2022-08-05T06:47:30.016Z,9.278232
2022-08-05T06:48:50.333Z,9.278228
2022-08-05T06:49:12.434Z,9.278179
2022-08-05T06:50:11.425Z,9.278242
2022-08-05T06:51:25.286Z,9.278213
2022-08-05T06:52:38.282Z,9.278382
2022-08-05T06:53:27.918Z,9.278228
2022-08-05T06:54:19.075Z,9.278293
2022-08-05T06:55:12.411Z,9.278342
2022-08-05T06:56:16.270Z,9.278343
2022-08-05T06:57:56.598Z,9.278360
2022-08-05T06:58:19.999Z,9.278332
2022-08-05T06:59:12.241Z,9.278274
2022-08-05T07:00:11.236Z,9.278255
2022-08-05T07:01:11.280Z,9.278251
2022-08-05T07:02:11.220Z,9.278248
2022-08-05T07:03:11.224Z,9.278284
2022-08-05T07:04:11.192Z,9.278254
2022-08-05T07:05:14.156Z,9.278211
2022-08-05T07:06:14.403Z,9.278201
2022-08-05T07:07:11.144Z,9.278141
2022-08-05T07:08:11.274Z,9.278292
2022-08-05T07:09:11.102Z,9.278232
2022-08-05T07:10:11.088Z,9.278217
2022-08-05T07:11:15.323Z,9.278250
2022-08-05T07:12:11.045Z,9.278213
2022-08-05T07:13:11.072Z,9.278251
2022-08-05T07:14:20.143Z,9.278217
2022-08-05T07:15:11.995Z,9.278219
2022-08-05T07:16:12.173Z,9.278260
2022-08-05T07:17:58.679Z,9.278287
2022-08-05T07:18:14.633Z,9.278309
2022-08-05T07:19:16.105Z,9.278292
2022-08-05T07:20:32.562Z,9.278286
2022-08-05T07:21:12.899Z,9.278241
2022-08-05T07:22:10.870Z,9.278289
2022-08-05T07:23:25.924Z,9.278405
2022-08-05T07:24:11.832Z,9.278293
2022-08-05T07:25:55.682Z,9.278292
2022-08-05T07:26:13.372Z,9.278376
2022-08-05T07:27:10.811Z,9.278430
2022-08-05T07:28:11.982Z,9.278549
2022-08-05T07:29:12.776Z,9.278430
2022-08-05T07:30:22.849Z,9.278367
2022-08-05T07:31:11.715Z,9.278271
2022-08-05T07:32:10.700Z,9.278072
2022-08-05T07:33:16.443Z,9.278105
2022-08-05T07:34:11.677Z,9.278054
2022-08-05T07:36:04.400Z,9.277900
2022-08-05T07:36:20.186Z,9.277983
2022-08-05T07:37:11.867Z,9.278206
2022-08-05T07:38:12.302Z,9.278382
2022-08-05T07:39:24.842Z,9.278279
2022-08-05T07:40:31.483Z,9.278457
2022-08-05T07:42:08.122Z,9.278319
2022-08-05T07:42:14.935Z,9.278298
2022-08-05T07:43:19.989Z,9.278324
2022-08-05T07:44:18.594Z,9.278219
2022-08-05T07:45:11.548Z,9.278357
2022-08-05T07:46:18.209Z,9.278219
2022-08-05T07:47:11.502Z,9.278212
2022-08-05T07:48:10.488Z,9.278130
2022-08-05T07:49:10.444Z,9.278199
2022-08-05T07:50:10.457Z,9.278275
2022-08-05T07:51:23.520Z,9.278210
2022-08-05T07:52:11.403Z,9.277974
2022-08-05T07:53:10.416Z,9.277798
2022-08-05T07:54:11.440Z,9.277731
2022-08-05T07:55:44.405Z,9.277597
2022-08-05T07:56:39.035Z,9.278239
2022-08-05T07:57:41.711Z,9.278246
2022-08-05T07:58:11.434Z,9.278237
2022-08-05T07:59:11.286Z,9.278282
2022-08-05T08:00:11.352Z,9.278283
2022-08-05T08:01:12.087Z,9.278334
2022-08-05T08:02:15.237Z,9.278343
2022-08-05T08:03:15.046Z,9.278256
2022-08-05T08:04:10.191Z,9.278297
2022-08-05T08:05:11.405Z,9.278280
2022-08-05T08:06:10.229Z,9.278348
2022-08-05T08:07:10.164Z,9.278248
2022-08-05T08:08:12.181Z,9.278346
2022-08-05T08:09:10.140Z,9.278328
2022-08-05T08:10:10.126Z,9.278329
2022-08-05T08:11:10.084Z,9.278388
2022-08-05T08:12:27.272Z,9.278367
2022-08-05T08:13:12.165Z,9.278297
2022-08-05T08:14:10.049Z,9.278284
2022-08-05T08:15:15.331Z,9.278279
2022-08-05T08:16:35.617Z,9.278350
2022-08-05T08:17:11.005Z,9.278321
2022-08-05T08:18:14.254Z,9.278401
2022-08-05T08:19:37.924Z,9.278442
2022-08-05T08:20:43.276Z,9.278271
2022-08-05T08:21:16.009Z,9.278295
2022-08-05T08:22:10.985Z,9.278337
2022-08-05T08:24:00.120Z,9.278213
2022-08-05T08:24:14.078Z,9.278296
2022-08-05T08:25:16.323Z,9.278451
2022-08-05T08:26:10.872Z,9.278527
2022-08-05T08:27:09.871Z,9.278540
2022-08-05T08:28:11.452Z,9.278462
2022-08-05T08:29:45.130Z,9.278501
2022-08-05T08:30:28.589Z,9.278441
2022-08-05T08:31:15.090Z,9.278494
2022-08-05T08:32:10.982Z,9.278559
2022-08-05T08:33:13.939Z,9.278442
2022-08-05T08:34:09.756Z,9.278466
2022-08-05T08:35:13.716Z,9.278456
2022-08-05T08:37:11.709Z,9.278466
2022-08-05T08:38:11.835Z,9.278541
2022-08-05T08:39:15.360Z,9.278526
2022-08-05T08:40:10.654Z,9.278510
2022-08-05T08:41:09.685Z,9.278478
2022-08-05T08:42:33.964Z,9.278397
2022-08-05T08:44:57.902Z,9.278429
2022-08-05T08:45:18.645Z,9.278403
2022-08-05T08:45:24.265Z,9.278461
2022-08-05T08:46:15.624Z,9.278539
2022-08-05T08:47:22.249Z,9.278477
2022-08-05T08:48:22.568Z,9.278458
2022-08-05T08:50:22.203Z,9.278554
2022-08-05T08:50:30.935Z,9.278579
2022-08-05T08:51:54.514Z,9.278403
2022-08-05T08:52:23.359Z,9.278441
2022-08-05T08:53:12.352Z,9.278293
2022-08-05T08:54:09.490Z,9.278499
2022-08-05T08:55:13.509Z,9.278456
2022-08-05T08:56:10.409Z,9.278442
2022-08-05T08:57:11.420Z,9.278307
2022-08-05T08:58:09.411Z,9.278360
2022-08-05T08:59:19.409Z,9.278430
2022-08-05T09:00:11.364Z,9.278352
2022-08-05T09:01:11.023Z,9.278414
2022-08-05T09:02:10.338Z,9.278426
2022-08-05T09:03:09.381Z,9.278302
2022-08-05T09:04:10.769Z,9.278263
2022-08-05T09:05:16.556Z,9.278313
2022-08-05T09:06:11.541Z,9.278424
2022-08-05T09:07:10.700Z,9.278393
2022-08-05T09:08:11.309Z,9.278500
2022-08-05T09:09:09.266Z,9.278447
2022-08-05T09:10:09.239Z,9.278353
2022-08-05T09:11:13.624Z,9.278356
2022-08-05T09:12:20.798Z,9.278254
2022-08-05T09:13:11.180Z,9.278396
2022-08-05T09:14:57.859Z,9.278438
2022-08-05T09:15:10.157Z,9.278387
2022-08-05T09:16:09.190Z,9.278378
2022-08-05T09:17:41.392Z,9.278452
2022-08-05T09:18:10.165Z,9.278327
2022-08-05T09:19:09.086Z,9.278369
2022-08-05T09:20:09.077Z,9.278408
2022-08-05T09:21:11.767Z,9.278451
2022-08-05T09:22:23.144Z,9.278486
2022-08-05T09:23:10.050Z,9.278518
2022-08-05T09:24:10.135Z,9.278399
2022-08-05T09:25:23.702Z,9.278401
2022-08-05T09:26:09.997Z,9.278415
2022-08-05T09:27:08.951Z,9.278457
2022-08-05T09:28:08.957Z,9.278555
2022-08-05T09:29:09.102Z,9.278547
2022-08-05T09:30:08.936Z,9.278446
2022-08-05T09:31:43.562Z,9.278311
2022-08-05T09:32:41.004Z,9.278337
2022-08-05T09:33:09.904Z,9.278381
2022-08-05T09:34:10.386Z,9.278377
2022-08-05T09:35:08.830Z,9.278359
2022-08-05T09:36:11.771Z,9.278379
2022-08-05T09:37:15.266Z,9.278350
2022-08-05T09:38:17.089Z,9.278283
2022-08-05T09:39:16.591Z,9.278284
2022-08-05T09:40:09.806Z,9.278337
2022-08-05T09:41:08.765Z,9.278316
2022-08-05T09:42:08.717Z,9.278296
2022-08-05T09:43:08.762Z,9.278346
2022-08-05T09:44:08.703Z,9.278325
2022-08-05T09:46:02.693Z,9.278317
2022-08-05T09:46:09.662Z,9.278375
2022-08-05T09:47:12.436Z,9.278363
2022-08-05T09:48:09.703Z,9.278305
2022-08-05T09:49:19.380Z,9.278377
2022-08-05T09:50:10.607Z,9.278370
2022-08-05T09:51:15.304Z,9.278342
2022-08-05T09:52:09.581Z,9.278405
2022-08-05T09:53:08.737Z,9.278408
2022-08-05T09:54:09.337Z,9.278444
2022-08-05T09:55:56.675Z,9.278405
2022-08-05T09:56:13.424Z,9.278428
2022-08-05T09:57:23.375Z,9.278380
2022-08-05T09:58:09.518Z,9.278406
2022-08-05T09:59:08.472Z,9.278404
2022-08-05T10:00:08.467Z,9.278393
2022-08-05T10:01:15.151Z,9.278370
2022-08-05T10:02:09.452Z,9.278386
2022-08-05T10:03:08.408Z,9.278413
2022-08-05T10:04:10.446Z,9.278441
2022-08-05T10:05:08.394Z,9.278400
2022-08-05T10:06:15.609Z,9.278438
2022-08-05T10:07:20.332Z,9.278378
2022-08-05T10:08:10.709Z,9.278412
2022-08-05T10:09:09.333Z,9.278378
2022-08-05T10:10:15.178Z,9.278497
2022-08-05T10:11:09.296Z,9.278378
2022-08-05T10:12:30.338Z,9.278369
2022-08-05T10:13:09.832Z,9.278354
2022-08-05T10:14:08.248Z,9.278383
2022-08-05T10:15:08.249Z,9.278543
2022-08-05T10:16:08.207Z,9.278454
2022-08-05T10:17:08.168Z,9.278425
2022-08-05T10:18:09.168Z,9.278437
2022-08-05T10:19:09.119Z,9.278428
2022-08-05T10:20:11.003Z,9.278519
2022-08-05T10:21:11.775Z,9.278530
2022-08-05T10:22:09.175Z,9.278427
2022-08-05T10:23:33.890Z,9.278419
2022-08-05T10:24:10.723Z,9.278324
2022-08-05T10:25:09.084Z,9.278411
2022-08-05T10:26:08.102Z,9.278423
2022-08-05T10:27:09.157Z,9.278436
2022-08-05T10:28:13.381Z,9.278513
2022-08-05T10:29:09.053Z,9.278530
2022-08-05T10:32:48.183Z,9.278493
2022-08-05T10:32:54.723Z,9.278467
2022-08-05T10:33:02.199Z,9.278474
2022-08-05T10:33:14.770Z,9.278411
2022-08-05T10:34:09.005Z,9.278393
2022-08-05T10:35:07.926Z,9.278407
2022-08-05T10:36:07.899Z,9.278390
2022-08-05T10:37:07.916Z,9.278378
2022-08-05T10:38:08.255Z,9.278363
2022-08-05T10:39:11.517Z,9.278383
2022-08-05T10:40:17.867Z,9.278436
2022-08-05T10:41:08.915Z,9.278409
2022-08-05T10:42:07.806Z,9.278404
2022-08-05T10:43:07.837Z,9.278355
2022-08-05T10:44:07.847Z,9.278335
2022-08-05T10:45:09.793Z,9.278400
2022-08-05T10:46:08.783Z,9.278393
2022-08-05T10:47:10.146Z,9.278380
2022-08-05T10:48:30.990Z,9.278341
2022-08-05T10:49:10.531Z,9.278349
2022-08-05T10:50:20.687Z,9.278355
2022-08-05T10:51:21.845Z,9.278399
2022-08-05T10:52:10.580Z,9.278362
2022-08-05T10:53:07.682Z,9.278432
2022-08-05T10:54:28.126Z,9.278443
2022-08-05T10:55:08.636Z,9.278384
2022-08-05T10:56:21.301Z,9.278356
2022-08-05T10:57:08.605Z,9.278337
2022-08-05T10:58:07.647Z,9.278336
2022-08-05T10:59:12.544Z,9.278354
2022-08-05T11:00:13.276Z,9.278388
2022-08-05T11:01:08.563Z,9.278412
2022-08-05T11:02:07.657Z,9.278287
2022-08-05T11:03:24.776Z,9.278331
2022-08-05T11:04:08.542Z,9.278399
2022-08-05T11:05:07.500Z,9.278373
2022-08-05T11:06:08.559Z,9.278377
2022-08-05T11:07:08.477Z,9.278380
2022-08-05T11:08:33.846Z,9.278317
2022-08-05T11:09:09.464Z,9.278286
2022-08-05T11:10:09.991Z,9.278317
2022-08-05T11:11:14.606Z,9.278435
2022-08-05T11:12:09.512Z,9.278368
2022-08-05T11:13:07.563Z,9.278318
2022-08-05T11:14:07.392Z,9.278374
2022-08-05T11:15:19.262Z,9.278367
2022-08-05T11:16:08.363Z,9.278405
2022-08-05T11:17:57.583Z,9.278367
2022-08-05T11:18:09.706Z,9.278370
2022-08-05T11:20:09.878Z,9.278252
2022-08-05T11:20:10.893Z,9.278366
2022-08-05T11:21:11.794Z,9.278375
2022-08-05T11:22:07.247Z,9.278413
2022-08-05T11:23:10.389Z,9.278453
2022-08-05T11:24:30.609Z,9.278280
2022-08-05T11:26:03.017Z,9.278315
2022-08-05T11:26:08.790Z,9.278384
2022-08-05T11:27:07.166Z,9.278481
2022-08-05T11:28:07.159Z,9.278270
2022-08-05T11:29:13.947Z,9.278232
2022-08-05T11:30:09.157Z,9.278211
2022-08-05T11:31:07.120Z,9.278238
2022-08-05T11:32:07.076Z,9.278282
2022-08-05T11:33:07.071Z,9.278391
2022-08-05T11:34:08.282Z,9.278426
2022-08-05T11:35:07.049Z,9.278378
2022-08-05T11:36:08.661Z,9.278331
2022-08-05T11:38:28.420Z,9.278313
2022-08-05T11:38:30.566Z,9.278303
2022-08-05T11:39:08.062Z,9.278316
2022-08-05T11:40:07.003Z,9.278319
2022-08-05T11:41:35.146Z,9.278342
2022-08-05T11:42:07.914Z,9.278313
2022-08-05T11:43:06.950Z,9.278386
2022-08-05T11:44:08.243Z,9.278358
2022-08-05T11:45:23.176Z,9.278312